Time;durP1;ratioP1;P1;durP2;ratioP2;P2;SDS_P1;SDS_P2;PMS_P1;PMS_P2;Temp;Humidity;BMP_temperature;BMP_pressure;BME280_temperature;BME280_humidity;BME280_pressure;Samples;Min_cycle;Max_cycle;Signal;HPM_P1;HPM_P2
2022/12/12 00:00:55;;;;;;;24.83;15.90;;;6.70;53.20;;;;;;5024268;28;20436;-57
2022/12/12 00:03:21;;;;;;;26.50;16.50;;;6.70;53.20;;;;;;5021550;28;20221;-56
2022/12/12 00:05:47;;;;;;;27.63;18.10;;;6.70;53.10;;;;;;5029162;28;20197;-55
2022/12/12 00:08:12;;;;;;;23.33;17.00;;;6.70;53.30;;;;;;5026699;28;20239;-56
2022/12/12 00:10:38;;;;;;;25.23;18.03;;;6.60;53.40;;;;;;5026322;28;20565;-56
2022/12/12 00:13:04;;;;;;;24.80;16.63;;;6.70;53.20;;;;;;5025400;28;20250;-55
2022/12/12 00:15:29;;;;;;;24.33;16.73;;;6.70;53.20;;;;;;5020116;28;20791;-55
2022/12/12 00:17:55;;;;;;;27.23;18.07;;;6.70;53.30;;;;;;5021928;28;20185;-57
2022/12/12 00:20:20;;;;;;;27.30;18.57;;;6.70;53.40;;;;;;5027380;28;20200;-57
2022/12/12 00:22:46;;;;;;;24.60;18.47;;;6.70;53.30;;;;;;5024806;28;20232;-56
2022/12/12 00:25:12;;;;;;;28.40;19.03;;;6.70;53.40;;;;;;5022582;28;20194;-58
2022/12/12 00:27:38;;;;;;;26.07;17.17;;;6.70;53.40;;;;;;5020432;28;20229;-57
2022/12/12 00:30:04;;;;;;;24.33;16.30;;;6.70;53.40;;;;;;5028701;28;20198;-55
2022/12/12 00:32:30;;;;;;;28.83;18.73;;;6.60;53.40;;;;;;5024736;28;20228;-57
2022/12/12 00:34:55;;;;;;;26.40;17.17;;;6.60;53.40;;;;;;5027699;28;20443;-57
2022/12/12 00:37:21;;;;;;;24.00;16.67;;;6.60;53.50;;;;;;5028186;28;20672;-57
2022/12/12 00:39:46;;;;;;;27.60;16.43;;;6.60;53.50;;;;;;5029120;28;20193;-57
2022/12/12 00:42:12;;;;;;;26.93;17.50;;;6.60;53.60;;;;;;5022337;28;20197;-56
2022/12/12 00:44:38;;;;;;;23.77;17.17;;;6.60;53.70;;;;;;5013303;28;20189;-57
2022/12/12 00:47:03;;;;;;;25.80;17.13;;;6.50;53.60;;;;;;5031444;28;20204;-56
2022/12/12 00:49:29;;;;;;;29.57;19.47;;;6.50;53.60;;;;;;5028155;28;20198;-58
2022/12/12 00:51:55;;;;;;;26.90;18.40;;;6.50;53.60;;;;;;5026440;28;20252;-57
2022/12/12 00:54:20;;;;;;;29.37;18.17;;;6.50;53.50;;;;;;5023505;28;20316;-57
2022/12/12 00:56:46;;;;;;;30.53;18.77;;;6.50;53.40;;;;;;5027275;28;20968;-56
2022/12/12 00:59:12;;;;;;;28.07;17.60;;;6.50;53.40;;;;;;5024336;28;20203;-55
2022/12/12 01:01:37;;;;;;;27.40;17.27;;;6.50;53.40;;;;;;5025662;28;20194;-56
2022/12/12 01:04:03;;;;;;;26.37;17.00;;;6.50;53.50;;;;;;5029108;28;20277;-57
2022/12/12 01:06:29;;;;;;;29.17;18.33;;;6.50;53.50;;;;;;5031319;28;20212;-56
2022/12/12 01:08:55;;;;;;;28.00;18.20;;;6.50;53.50;;;;;;5025662;28;20767;-57
2022/12/12 01:11:22;;;;;;;25.23;18.07;;;6.40;53.60;;;;;;5026447;28;20515;-55
2022/12/12 01:13:49;;;;;;;25.43;17.70;;;6.50;53.70;;;;;;5024058;28;20466;-56
2022/12/12 01:16:15;;;;;;;29.20;19.67;;;6.50;53.70;;;;;;5019263;28;20448;-56
2022/12/12 01:18:41;;;;;;;23.97;17.10;;;6.50;53.80;;;;;;5028793;28;20448;-57
2022/12/12 01:21:13;;;;;;;30.13;18.57;;;6.40;53.70;;;;;;5020683;28;20201;-57
2022/12/12 01:23:39;;;;;;;27.63;17.60;;;6.40;53.90;;;;;;5024785;28;20447;-57
2022/12/12 01:26:12;;;;;;;27.97;17.73;;;6.40;54.10;;;;;;5015864;28;20436;-56
2022/12/12 01:28:37;;;;;;;31.03;19.77;;;6.40;54.10;;;;;;5026592;28;20455;-57
2022/12/12 01:31:04;;;;;;;24.70;17.67;;;6.40;54.00;;;;;;5024478;28;20468;-57
2022/12/12 01:33:29;;;;;;;28.03;18.60;;;6.40;54.00;;;;;;5026665;28;20193;-56
2022/12/12 01:35:56;;;;;;;30.30;17.53;;;6.30;54.10;;;;;;5028074;28;20496;-55
2022/12/12 01:38:23;;;;;;;26.07;18.63;;;6.30;54.00;;;;;;5028423;28;20534;-57
2022/12/12 01:40:50;;;;;;;30.20;18.10;;;6.30;54.00;;;;;;5026501;28;20288;-56
2022/12/12 01:43:18;;;;;;;26.93;17.00;;;6.40;54.10;;;;;;5027733;28;20977;-56
2022/12/12 01:45:59;;;;;;;26.80;17.40;;;6.40;54.10;;;;;;5024295;28;20435;-56
2022/12/12 01:48:47;;;;;;;24.93;15.47;;;6.40;54.20;;;;;;5023132;28;20452;-56
2022/12/12 01:51:19;;;;;;;29.93;16.07;;;6.40;54.10;;;;;;5023965;28;20521;-56
2022/12/12 01:53:46;;;;;;;22.87;15.37;;;6.40;53.90;;;;;;5028242;28;20484;-57
2022/12/12 01:56:15;;;;;;;21.33;15.20;;;6.40;53.60;;;;;;5026931;28;20463;-57
2022/12/12 01:58:44;;;;;;;23.67;15.13;;;6.40;53.60;;;;;;5022961;28;20440;-55
2022/12/12 02:01:11;;;;;;;22.43;14.13;;;6.40;53.70;;;;;;5023100;28;20444;-56
2022/12/12 02:03:38;;;;;;;22.47;15.50;;;6.40;53.70;;;;;;5021955;28;20459;-56
2022/12/12 02:06:07;;;;;;;19.00;14.10;;;6.40;53.60;;;;;;5027172;28;20444;-56
2022/12/12 02:08:33;;;;;;;23.80;14.60;;;6.40;53.50;;;;;;5022374;28;20459;-56
2022/12/12 02:10:59;;;;;;;23.73;13.33;;;6.40;53.70;;;;;;5025815;28;20479;-56
2022/12/12 02:13:28;;;;;;;20.50;14.77;;;6.30;53.80;;;;;;5022945;28;20449;-57
2022/12/12 02:16:08;;;;;;;20.80;14.00;;;6.30;53.90;;;;;;5022109;28;20328;-56
2022/12/12 02:18:40;;;;;;;21.67;14.07;;;6.30;53.70;;;;;;5022371;28;20436;-57
2022/12/12 02:21:18;;;;;;;20.23;15.17;;;6.20;53.50;;;;;;5023221;28;20448;-57
2022/12/12 02:23:58;;;;;;;23.93;13.73;;;6.30;53.60;;;;;;5021220;28;20549;-56
2022/12/12 02:26:43;;;;;;;24.40;15.47;;;6.20;53.50;;;;;;5022502;28;20649;-59
2022/12/12 02:29:42;;;;;;;23.77;13.97;;;6.20;53.40;;;;;;5024070;28;21358;-56
2022/12/12 02:32:22;;;;;;;19.80;14.00;;;6.10;53.50;;;;;;5026831;28;20570;-57
2022/12/12 02:34:54;;;;;;;22.57;14.20;;;6.10;53.70;;;;;;5020604;28;20484;-57
2022/12/12 02:37:33;;;;;;;18.63;13.10;;;6.10;53.80;;;;;;5004161;28;20854;-56
2022/12/12 02:40:36;;;;;;;19.57;13.40;;;6.10;53.70;;;;;;5026048;28;21245;-56
2022/12/12 02:43:35;;;;;;;19.40;13.33;;;6.00;53.70;;;;;;5018749;28;20479;-56
2022/12/12 02:46:07;;;;;;;20.73;12.90;;;6.00;53.70;;;;;;5015170;28;20510;-57
2022/12/12 02:48:39;;;;;;;22.07;14.00;;;6.00;53.50;;;;;;5024232;28;20822;-56
2022/12/12 02:51:08;;;;;;;21.53;14.60;;;6.00;53.50;;;;;;5019764;28;20498;-56
2022/12/12 02:53:33;;;;;;;20.70;14.00;;;6.00;53.50;;;;;;5018739;28;20560;-56
2022/12/12 02:56:40;;;;;;;21.87;14.70;;;5.90;53.40;;;;;;5023991;28;21006;-57
2022/12/12 02:59:06;;;;;;;19.27;11.70;;;5.90;53.40;;;;;;5006980;28;20236;-56
2022/12/12 03:01:44;;;;;;;17.43;11.93;;;5.90;53.30;;;;;;5024540;28;20428;-56
2022/12/12 03:08:24;;;;;;;22.73;12.80;;;5.70;53.30;;;;;;4942292;28;20500;-55
2022/12/12 03:11:01;;;;;;;21.57;13.97;;;5.60;53.50;;;;;;4933503;29;20452;-56
2022/12/12 03:13:50;;;;;;;24.30;13.73;;;5.60;53.60;;;;;;5019625;28;20436;-56
2022/12/12 03:16:30;;;;;;;22.83;13.80;;;5.60;53.60;;;;;;5018844;28;20446;-56
2022/12/12 03:18:58;;;;;;;19.57;12.50;;;5.60;53.60;;;;;;5030204;28;20447;-56
2022/12/12 03:21:52;;;;;;;19.73;13.03;;;5.60;54.00;;;;;;5020998;28;20448;-56
2022/12/12 03:24:46;;;;;;;22.70;14.17;;;5.60;53.80;;;;;;5028479;28;20435;-56
2022/12/12 03:27:23;;;;;;;23.53;15.20;;;5.50;53.60;;;;;;5022068;28;20778;-54
2022/12/12 03:29:58;;;;;;;21.67;14.17;;;5.50;54.20;;;;;;5025293;28;20524;-55
2022/12/12 03:32:35;;;;;;;22.73;15.87;;;5.50;53.70;;;;;;5027748;28;20891;-54
2022/12/12 03:35:17;;;;;;;22.63;14.20;;;5.50;53.70;;;;;;5029207;28;20440;-55
2022/12/12 03:37:50;;;;;;;25.40;15.30;;;5.40;53.60;;;;;;5024058;28;20460;-56
2022/12/12 03:40:52;;;;;;;23.87;15.10;;;5.40;53.80;;;;;;5023148;28;20444;-55
2022/12/12 03:43:30;;;;;;;24.90;14.80;;;5.40;53.90;;;;;;4989171;28;20459;-57
2022/12/12 03:46:18;;;;;;;22.50;13.63;;;5.40;53.90;;;;;;5028570;28;20451;-55
2022/12/12 03:48:54;;;;;;;17.80;12.67;;;5.40;53.90;;;;;;5026122;28;20439;-55
2022/12/12 03:51:28;;;;;;;23.80;14.70;;;5.30;53.90;;;;;;5026470;28;20487;-56
2022/12/12 03:54:05;;;;;;;25.67;15.73;;;5.30;53.90;;;;;;5031254;28;20570;-57
2022/12/12 03:56:40;;;;;;;20.57;13.73;;;5.30;54.10;;;;;;5026921;28;20447;-55
2022/12/12 03:59:22;;;;;;;24.60;15.23;;;5.30;54.20;;;;;;5029482;28;20444;-55
2022/12/12 04:02:13;;;;;;;23.60;14.57;;;5.30;54.20;;;;;;5027978;28;20884;-56
2022/12/12 04:04:57;;;;;;;23.50;14.70;;;5.20;54.00;;;;;;5021741;28;20950;-57
2022/12/12 04:07:40;;;;;;;21.13;15.20;;;5.30;54.10;;;;;;5023088;28;20447;-55
2022/12/12 04:13:22;;;;;;;22.57;14.23;;;5.10;54.40;;;;;;5033012;28;20490;-56
2022/12/12 04:16:05;;;;;;;27.17;15.17;;;5.10;54.60;;;;;;5027774;28;20452;-55
2022/12/12 04:19:01;;;;;;;23.10;13.70;;;5.20;54.50;;;;;;5032395;28;20448;-56
2022/12/12 04:24:34;;;;;;;22.60;13.00;;;5.20;54.70;;;;;;5029667;28;20454;-56
2022/12/12 04:27:21;;;;;;;19.60;12.57;;;5.20;54.50;;;;;;5033349;28;20567;-56
2022/12/12 04:30:01;;;;;;;16.03;10.93;;;5.20;54.40;;;;;;5032016;28;20815;-55
2022/12/12 04:32:48;;;;;;;21.47;12.10;;;5.20;54.20;;;;;;5024770;28;20491;-57
2022/12/12 04:35:42;;;;;;;18.50;12.67;;;5.20;54.20;;;;;;5014231;28;20456;-56
2022/12/12 04:38:26;;;;;;;22.07;14.50;;;5.20;54.30;;;;;;5023184;28;20448;-57
2022/12/12 04:40:58;;;;;;;23.90;14.17;;;5.20;54.10;;;;;;5025531;28;20551;-56
2022/12/12 04:43:33;;;;;;;18.13;14.20;;;5.20;54.00;;;;;;5033490;28;20444;-56
2022/12/12 04:46:03;;;;;;;21.27;14.67;;;5.20;54.00;;;;;;5032642;28;21116;-56
2022/12/12 04:48:52;;;;;;;21.63;15.20;;;5.20;54.80;;;;;;5030948;28;20440;-55
2022/12/12 04:51:23;;;;;;;22.83;15.70;;;5.10;54.00;;;;;;5022410;28;20502;-55
2022/12/12 04:53:55;;;;;;;22.77;14.63;;;5.00;54.10;;;;;;5029488;28;20467;-55
2022/12/12 04:56:27;;;;;;;22.83;16.03;;;5.00;54.50;;;;;;5028200;28;20444;-56
2022/12/12 04:58:53;;;;;;;26.23;16.13;;;5.00;54.40;;;;;;5029435;28;20446;-56
2022/12/12 05:01:27;;;;;;;27.27;15.70;;;5.10;54.30;;;;;;5029456;28;20452;-57
2022/12/12 05:04:00;;;;;;;19.57;14.43;;;5.10;54.30;;;;;;5018979;28;20658;-56
2022/12/12 05:06:40;;;;;;;24.73;16.00;;;5.20;54.20;;;;;;5031294;28;21916;-57
2022/12/12 05:09:07;;;;;;;23.83;14.63;;;5.20;54.20;;;;;;5030416;28;20595;-55
2022/12/12 05:11:33;;;;;;;22.27;14.93;;;5.20;54.20;;;;;;5025303;28;20526;-56
2022/12/12 05:13:59;;;;;;;24.27;14.60;;;5.20;54.30;;;;;;5027238;28;20505;-57
2022/12/12 05:16:41;;;;;;;23.83;15.17;;;5.20;54.50;;;;;;5026963;28;20474;-57
2022/12/12 05:19:07;;;;;;;26.03;16.00;;;5.20;54.50;;;;;;5025904;28;20208;-56
2022/12/12 05:21:32;;;;;;;27.70;17.10;;;5.20;54.20;;;;;;5028145;28;20440;-57
2022/12/12 05:23:58;;;;;;;24.57;15.60;;;5.20;54.20;;;;;;5024818;28;20212;-57
2022/12/12 05:26:29;;;;;;;25.00;15.57;;;5.20;54.20;;;;;;5027403;28;20200;-56
2022/12/12 05:28:55;;;;;;;25.80;16.10;;;5.20;54.30;;;;;;5024427;28;20193;-55
2022/12/12 05:31:21;;;;;;;20.80;16.10;;;5.10;54.50;;;;;;5017917;28;20479;-55
2022/12/12 05:33:47;;;;;;;27.93;17.90;;;5.10;54.60;;;;;;5018119;28;20524;-56
2022/12/12 05:36:13;;;;;;;28.80;17.20;;;5.00;54.60;;;;;;5023083;28;21042;-56
2022/12/12 05:38:40;;;;;;;24.73;15.20;;;5.00;54.80;;;;;;5022986;28;20189;-55
2022/12/12 05:41:06;;;;;;;22.43;16.17;;;4.60;54.90;;;;;;5029592;28;21054;-56
2022/12/12 05:43:31;;;;;;;26.60;16.77;;;4.50;56.10;;;;;;5025645;28;20440;-57
2022/12/12 05:45:57;;;;;;;22.67;17.40;;;4.70;56.10;;;;;;5024695;28;20478;-57
2022/12/12 05:48:23;;;;;;;25.23;17.33;;;4.90;55.80;;;;;;5024364;28;20570;-57
2022/12/12 05:50:48;;;;;;;30.20;19.80;;;4.90;55.60;;;;;;5022693;28;20451;-57
2022/12/12 05:53:14;;;;;;;26.07;16.83;;;5.00;55.40;;;;;;5027878;28;20256;-54
2022/12/12 05:55:40;;;;;;;28.47;18.77;;;5.00;55.30;;;;;;5027632;28;20280;-57
2022/12/12 05:58:05;;;;;;;28.10;17.40;;;5.10;55.20;;;;;;5014793;28;20201;-55
2022/12/12 06:00:31;;;;;;;28.07;17.73;;;5.10;55.10;;;;;;5020357;28;20233;-56
2022/12/12 06:02:57;;;;;;;27.37;17.33;;;5.20;55.10;;;;;;5021359;28;20744;-55
2022/12/12 06:05:22;;;;;;;29.80;17.77;;;5.30;54.90;;;;;;5020549;28;20198;-57
2022/12/12 06:07:48;;;;;;;27.97;16.70;;;5.30;54.40;;;;;;5026619;28;20220;-57
2022/12/12 06:10:13;;;;;;;28.83;19.30;;;5.30;54.30;;;;;;5021026;28;20201;-56
2022/12/12 06:12:39;;;;;;;27.30;16.83;;;5.30;54.50;;;;;;5021584;28;20220;-56
2022/12/12 06:15:05;;;;;;;24.63;16.57;;;5.20;54.80;;;;;;5018721;28;20201;-56
2022/12/12 06:17:31;;;;;;;25.37;17.70;;;5.20;54.80;;;;;;5030760;28;20197;-53
2022/12/12 06:19:57;;;;;;;20.83;13.27;;;5.10;54.90;;;;;;5028137;28;20471;-55
2022/12/12 06:22:23;;;;;;;23.60;14.60;;;5.30;57.60;;;;;;5020471;28;20274;-54
2022/12/12 06:24:48;;;;;;;28.53;18.03;;;5.60;59.00;;;;;;5020756;28;20437;-54
2022/12/12 06:27:14;;;;;;;27.00;16.70;;;5.90;60.00;;;;;;5015362;28;20198;-54
2022/12/12 06:29:39;;;;;;;27.87;16.30;;;6.40;59.50;;;;;;5029451;28;20722;-55
2022/12/12 06:32:05;;;;;;;24.50;16.87;;;6.70;57.60;;;;;;5020850;28;20720;-58
2022/12/12 06:34:31;;;;;;;27.67;18.43;;;6.80;56.10;;;;;;5025318;28;20532;-57
2022/12/12 06:36:57;;;;;;;24.13;15.57;;;6.60;52.20;;;;;;5030139;28;20208;-57
2022/12/12 06:39:22;;;;;;;23.87;16.67;;;6.20;51.80;;;;;;5026432;28;20665;-56
2022/12/12 06:41:48;;;;;;;26.10;17.33;;;6.00;52.40;;;;;;5018314;28;20209;-57
2022/12/12 06:44:13;;;;;;;24.70;15.10;;;5.80;52.30;;;;;;5027135;28;20527;-56
2022/12/12 06:46:39;;;;;;;29.70;16.83;;;5.60;52.60;;;;;;5026871;28;20197;-57
2022/12/12 06:49:08;;;;;;;24.77;17.17;;;5.60;53.00;;;;;;5022221;28;20198;-58
2022/12/12 06:51:37;;;;;;;26.57;16.63;;;5.50;52.90;;;;;;5026812;28;20283;-57
2022/12/12 06:54:03;;;;;;;27.70;17.43;;;5.40;53.20;;;;;;5027567;28;20494;-57
2022/12/12 06:56:29;;;;;;;22.63;16.13;;;5.30;53.20;;;;;;5027016;28;20436;-57
2022/12/12 06:58:57;;;;;;;26.90;17.33;;;5.20;53.60;;;;;;5028777;28;20462;-57
2022/12/12 07:01:23;;;;;;;23.53;16.23;;;5.30;53.90;;;;;;5025436;28;20447;-57
2022/12/12 07:03:50;;;;;;;23.47;16.83;;;5.20;53.80;;;;;;5027361;28;20436;-56
2022/12/12 07:06:17;;;;;;;28.13;17.30;;;5.20;53.90;;;;;;5029912;28;20221;-56
2022/12/12 07:08:43;;;;;;;26.13;16.63;;;5.20;53.80;;;;;;5028511;28;20451;-56
2022/12/12 07:11:14;;;;;;;26.77;15.83;;;5.30;53.70;;;;;;5021300;28;20467;-57
2022/12/12 07:13:40;;;;;;;30.07;17.10;;;5.20;53.40;;;;;;5027896;28;20201;-57
2022/12/12 07:16:06;;;;;;;28.93;18.00;;;5.30;53.10;;;;;;5030458;28;20435;-59
2022/12/12 07:18:31;;;;;;;27.97;16.93;;;5.30;52.80;;;;;;5033874;28;20208;-57
2022/12/12 07:20:57;;;;;;;27.50;17.33;;;5.10;52.80;;;;;;5033807;28;20448;-56
2022/12/12 07:23:23;;;;;;;20.90;15.73;;;4.90;53.00;;;;;;5022082;28;20186;-56
2022/12/12 07:25:48;;;;;;;26.43;16.80;;;4.70;53.60;;;;;;5033152;28;20228;-56
2022/12/12 07:28:14;;;;;;;28.17;18.53;;;4.60;54.00;;;;;;5029381;28;20198;-57
2022/12/12 07:30:45;;;;;;;27.10;17.07;;;4.50;54.00;;;;;;5029745;28;20635;-57
2022/12/12 07:33:13;;;;;;;22.20;15.03;;;4.50;54.30;;;;;;5026350;28;20485;-57
2022/12/12 07:35:38;;;;;;;25.97;16.10;;;4.70;54.20;;;;;;5028124;28;20486;-55
2022/12/12 07:38:04;;;;;;;22.70;15.77;;;4.80;54.00;;;;;;5032308;28;20943;-57
2022/12/12 07:40:31;;;;;;;27.07;16.30;;;4.50;53.60;;;;;;5021720;28;20645;-57
2022/12/12 07:42:58;;;;;;;22.17;15.60;;;4.00;54.40;;;;;;5034994;28;20194;-56
2022/12/12 07:45:24;;;;;;;29.67;17.53;;;3.70;55.60;;;;;;5033551;28;20447;-56
2022/12/12 07:47:50;;;;;;;27.00;16.90;;;3.10;56.50;;;;;;5028501;28;20541;-58
2022/12/12 07:50:16;;;;;;;27.70;16.57;;;3.00;57.50;;;;;;5027501;28;20279;-56
2022/12/12 07:52:43;;;;;;;24.93;16.00;;;3.30;57.50;;;;;;5030045;28;20971;-56
2022/12/12 07:55:09;;;;;;;29.23;17.23;;;3.40;56.70;;;;;;5033463;28;20233;-56
2022/12/12 07:57:35;;;;;;;25.53;16.70;;;3.10;57.10;;;;;;5030716;28;20443;-57
2022/12/12 08:00:02;;;;;;;24.13;16.80;;;3.10;57.30;;;;;;5029673;28;20439;-56
2022/12/12 08:02:27;;;;;;;23.30;15.47;;;3.00;57.50;;;;;;5032386;28;20435;-56
2022/12/12 08:04:53;;;;;;;24.73;16.47;;;3.00;58.00;;;;;;5013561;28;20857;-57
2022/12/12 08:07:19;;;;;;;24.70;15.47;;;2.90;57.80;;;;;;5030475;28;20193;-57
2022/12/12 08:09:44;;;;;;;32.23;16.43;;;3.00;58.00;;;;;;5028508;28;20240;-56
2022/12/12 08:12:10;;;;;;;26.20;16.40;;;3.10;57.90;;;;;;5029459;28;20678;-57
2022/12/12 08:14:36;;;;;;;28.33;16.73;;;3.40;57.60;;;;;;5030344;28;20201;-57
2022/12/12 08:17:01;;;;;;;21.70;14.90;;;3.60;56.40;;;;;;5030522;28;20201;-57
2022/12/12 08:19:27;;;;;;;25.17;16.50;;;3.40;56.10;;;;;;5028555;28;20450;-55
2022/12/12 08:21:53;;;;;;;23.40;16.10;;;3.50;56.10;;;;;;5030682;28;20637;-56
2022/12/12 08:24:18;;;;;;;28.07;16.00;;;3.40;56.50;;;;;;5034005;28;20197;-56
2022/12/12 08:26:44;;;;;;;25.83;16.30;;;3.40;56.30;;;;;;5032675;28;20197;-55
2022/12/12 08:29:11;;;;;;;23.23;15.73;;;3.50;56.40;;;;;;5033804;28;20193;-55
2022/12/12 08:31:39;;;;;;;24.57;15.67;;;3.70;56.00;;;;;;5032936;28;20495;-57
2022/12/12 08:34:05;;;;;;;23.80;15.70;;;3.80;55.80;;;;;;5034248;28;20443;-55
2022/12/12 08:36:33;;;;;;;26.90;17.17;;;3.80;55.50;;;;;;5030079;28;20429;-55
2022/12/12 08:39:14;;;;;;;26.33;17.33;;;3.90;55.70;;;;;;5022919;28;20204;-56
2022/12/12 08:41:42;;;;;;;26.80;16.23;;;4.20;55.40;;;;;;5028609;28;20810;-55
2022/12/12 08:44:10;;;;;;;26.40;17.50;;;4.30;54.50;;;;;;5032499;28;20420;-55
2022/12/12 08:46:36;;;;;;;26.97;16.87;;;4.20;54.60;;;;;;5030651;28;20943;-55
2022/12/12 08:49:02;;;;;;;27.83;18.63;;;4.20;54.50;;;;;;5031924;28;20448;-58
2022/12/12 08:51:27;;;;;;;26.90;16.20;;;4.40;54.60;;;;;;5030011;28;20827;-55
2022/12/12 08:53:53;;;;;;;28.43;19.77;;;4.40;54.20;;;;;;5032809;28;20319;-57
2022/12/12 08:56:20;;;;;;;28.63;16.97;;;4.50;54.00;;;;;;5032743;28;20645;-55
2022/12/12 08:58:46;;;;;;;23.67;17.17;;;4.30;53.70;;;;;;5032500;28;20662;-57
2022/12/12 09:01:21;;;;;;;29.30;17.70;;;4.40;53.90;;;;;;5032255;28;20444;-56
2022/12/12 09:03:47;;;;;;;28.40;17.90;;;4.50;53.80;;;;;;5033392;28;20443;-55
2022/12/12 09:06:14;;;;;;;22.03;15.33;;;4.20;54.10;;;;;;5032555;28;20478;-54
2022/12/12 09:08:40;;;;;;;30.87;18.30;;;4.30;54.40;;;;;;5023543;28;21824;-56
2022/12/12 09:11:08;;;;;;;28.73;17.70;;;4.40;54.20;;;;;;5020307;28;20451;-57
2022/12/12 09:13:34;;;;;;;27.27;18.00;;;4.30;53.80;;;;;;5028613;28;20455;-57
2022/12/12 09:15:59;;;;;;;25.23;16.63;;;4.30;54.10;;;;;;5030987;28;20455;-57
2022/12/12 09:18:25;;;;;;;25.57;17.80;;;4.40;54.30;;;;;;5026519;28;21175;-56
2022/12/12 09:20:53;;;;;;;26.57;17.93;;;4.50;53.80;;;;;;5020318;28;20220;-57
2022/12/12 09:23:21;;;;;;;26.57;18.17;;;4.70;53.80;;;;;;5017335;28;20474;-54
2022/12/12 09:25:47;;;;;;;24.90;16.80;;;4.70;53.20;;;;;;5026798;28;20451;-54
2022/12/12 09:28:14;;;;;;;37.77;16.53;;;4.80;53.40;;;;;;5017664;28;20460;-53
2022/12/12 09:30:41;;;;;;;28.40;16.83;;;4.80;53.60;;;;;;5028046;28;20436;-56
2022/12/12 09:33:06;;;;;;;27.87;15.70;;;4.90;53.50;;;;;;5015549;28;20496;-51
2022/12/12 09:35:32;;;;;;;27.43;16.37;;;5.00;53.10;;;;;;5028367;28;20444;-54
2022/12/12 09:37:58;;;;;;;27.13;16.60;;;5.10;52.80;;;;;;5028999;28;20200;-57
2022/12/12 09:40:41;;;;;;;28.50;16.47;;;5.20;52.40;;;;;;5026368;28;20201;-51
2022/12/12 09:43:16;;;;;;;23.27;15.87;;;5.40;52.40;;;;;;5026943;28;20220;-58
2022/12/12 09:45:42;;;;;;;23.80;15.00;;;5.40;51.70;;;;;;5014799;28;20476;-57
2022/12/12 09:48:11;;;;;;;19.60;14.93;;;5.40;51.60;;;;;;5030203;28;20452;-52
2022/12/12 09:50:46;;;;;;;28.80;17.00;;;5.40;51.80;;;;;;5031616;28;20424;-53
2022/12/12 09:53:17;;;;;;;24.20;15.20;;;5.30;51.80;;;;;;5026545;28;20479;-55
2022/12/12 09:56:04;;;;;;;25.23;15.80;;;5.40;52.00;;;;;;5023809;28;20498;-54
2022/12/12 09:58:56;;;;;;;24.23;16.47;;;5.60;51.90;;;;;;5025923;28;20444;-54
2022/12/12 10:01:39;;;;;;;20.80;14.70;;;5.90;51.80;;;;;;5025602;28;20475;-54
2022/12/12 10:04:19;;;;;;;23.37;15.00;;;6.10;51.30;;;;;;5029919;28;20452;-53
2022/12/12 10:07:13;;;;;;;22.63;14.83;;;6.00;50.50;;;;;;5027948;28;20454;-55
2022/12/12 10:09:50;;;;;;;23.77;14.83;;;6.00;50.70;;;;;;5020751;28;20471;-54
2022/12/12 10:12:20;;;;;;;19.37;13.27;;;6.10;50.00;;;;;;5015672;28;20912;-55
2022/12/12 10:14:53;;;;;;;19.60;14.47;;;6.20;50.50;;;;;;5026402;28;20535;-54
2022/12/12 10:17:28;;;;;;;19.17;13.90;;;6.60;49.80;;;;;;5019224;28;20852;-55
2022/12/12 10:19:58;;;;;;;19.30;13.90;;;7.10;48.90;;;;;;5021741;28;20458;-55
2022/12/12 10:22:45;;;;;;;19.90;13.80;;;7.40;47.90;;;;;;5027140;28;20450;-54
2022/12/12 10:25:42;;;;;;;20.30;13.57;;;7.60;46.80;;;;;;5026684;28;20443;-53
2022/12/12 10:28:19;;;;;;;18.10;13.10;;;7.90;46.10;;;;;;5026684;28;20546;-54
2022/12/12 10:31:11;;;;;;;17.63;12.97;;;8.00;45.60;;;;;;5026130;28;20808;-55
2022/12/12 10:33:40;;;;;;;20.77;15.00;;;8.20;45.40;;;;;;5028302;28;20452;-55
2022/12/12 10:36:20;;;;;;;22.17;14.90;;;8.50;44.90;;;;;;5023472;28;20474;-54
2022/12/12 10:39:13;;;;;;;21.60;15.67;;;8.60;44.90;;;;;;5029160;28;21225;-55
2022/12/12 10:42:00;;;;;;;23.17;14.47;;;8.60;45.10;;;;;;5019977;28;20463;-55
2022/12/12 10:44:46;;;;;;;20.43;14.80;;;8.40;45.50;;;;;;5022398;28;20527;-55
2022/12/12 10:47:12;;;;;;;26.40;14.50;;;8.30;45.20;;;;;;5015923;28;20456;-56
2022/12/12 10:49:39;;;;;;;19.20;14.90;;;8.40;45.30;;;;;;5029523;28;20470;-54
2022/12/12 10:52:14;;;;;;;20.67;13.70;;;8.70;44.70;;;;;;5028016;28;20240;-55
2022/12/12 10:54:59;;;;;;;22.03;15.27;;;8.80;44.10;;;;;;5024436;28;20849;-57
2022/12/12 10:57:27;;;;;;;17.77;14.03;;;8.90;43.90;;;;;;5024525;28;20440;-57
2022/12/12 10:59:55;;;;;;;21.73;15.07;;;9.10;43.20;;;;;;5022910;28;20451;-54
2022/12/12 11:02:33;;;;;;;18.80;14.43;;;9.20;43.20;;;;;;5025087;28;20451;-56
2022/12/12 11:05:04;;;;;;;20.37;14.70;;;9.40;42.40;;;;;;5018645;28;20463;-57
2022/12/12 11:07:40;;;;;;;19.03;14.10;;;9.80;41.80;;;;;;5027985;28;20451;-56
2022/12/12 11:10:25;;;;;;;20.50;14.97;;;10.00;40.80;;;;;;5020627;28;20455;-55
2022/12/12 11:12:59;;;;;;;18.60;14.20;;;9.80;41.40;;;;;;5026046;28;20500;-55
2022/12/12 11:15:48;;;;;;;19.53;15.13;;;9.60;41.60;;;;;;5022317;28;20532;-56
2022/12/12 11:18:16;;;;;;;20.20;14.60;;;9.60;41.60;;;;;;5025456;28;20531;-56
2022/12/12 11:20:47;;;;;;;18.53;14.37;;;9.50;41.80;;;;;;5027200;28;20447;-56
2022/12/12 11:23:23;;;;;;;17.30;12.77;;;9.40;41.90;;;;;;5027627;28;20490;-56
2022/12/12 11:26:04;;;;;;;20.47;14.50;;;9.10;42.50;;;;;;5029855;28;20517;-56
2022/12/12 11:28:36;;;;;;;18.33;13.63;;;9.10;43.30;;;;;;5023923;28;20454;-57
2022/12/12 11:31:09;;;;;;;17.67;13.97;;;8.80;43.50;;;;;;5023168;28;20523;-56
2022/12/12 11:33:41;;;;;;;16.30;13.07;;;8.80;43.80;;;;;;5028626;28;20451;-56
2022/12/12 11:36:12;;;;;;;18.70;13.57;;;9.00;43.70;;;;;;5019718;28;20787;-56
2022/12/12 11:38:40;;;;;;;17.23;13.93;;;9.00;43.70;;;;;;5029646;28;20451;-55
2022/12/12 11:41:08;;;;;;;21.00;14.50;;;8.90;43.80;;;;;;5025507;28;20818;-58
2022/12/12 11:43:52;;;;;;;18.33;12.93;;;8.90;43.80;;;;;;5025027;28;20447;-55
2022/12/12 11:46:29;;;;;;;19.90;14.17;;;9.00;44.00;;;;;;5025714;28;20447;-55
2022/12/12 11:48:59;;;;;;;19.60;14.00;;;9.00;43.70;;;;;;5029229;28;20444;-54
2022/12/12 11:51:38;;;;;;;22.83;15.33;;;9.00;44.00;;;;;;5025426;28;20871;-57
2022/12/12 11:54:13;;;;;;;20.63;15.10;;;9.10;44.30;;;;;;5026453;28;20494;-54
2022/12/12 11:56:57;;;;;;;21.43;15.07;;;9.20;43.90;;;;;;5028340;28;20953;-55
2022/12/12 11:59:22;;;;;;;22.20;14.13;;;9.40;43.60;;;;;;5025462;28;20572;-53
2022/12/12 12:02:10;;;;;;;17.17;13.13;;;9.50;43.50;;;;;;5024587;28;20565;-55
2022/12/12 12:04:56;;;;;;;20.37;14.60;;;9.60;42.80;;;;;;5029312;28;20193;-52
2022/12/12 12:07:49;;;;;;;19.97;14.87;;;9.60;42.80;;;;;;5026550;28;20447;-55
2022/12/12 12:10:41;;;;;;;16.13;12.60;;;9.70;42.70;;;;;;5028956;28;20463;-55
2022/12/12 12:13:28;;;;;;;21.63;13.50;;;9.70;42.00;;;;;;5032137;28;20974;-56
2022/12/12 12:16:06;;;;;;;18.93;14.70;;;9.70;42.40;;;;;;5026964;28;20447;-55
2022/12/12 12:18:50;;;;;;;21.50;14.13;;;9.80;42.20;;;;;;5033017;28;20574;-54
2022/12/12 12:21:21;;;;;;;13.93;11.53;;;9.80;41.90;;;;;;5023714;28;20928;-52
2022/12/12 12:24:06;;;;;;;14.03;12.43;;;9.90;41.20;;;;;;5029589;28;20454;-52
2022/12/12 12:26:49;;;;;;;17.50;12.30;;;9.90;40.70;;;;;;5023786;28;20986;-55
2022/12/12 12:29:55;;;;;;;17.30;12.27;;;9.90;41.00;;;;;;5032317;28;20477;-55
2022/12/12 12:32:40;;;;;;;14.33;10.60;;;10.00;39.80;;;;;;5026051;28;20486;-53
2022/12/12 12:35:27;;;;;;;12.83;10.13;;;10.00;39.20;;;;;;5032596;28;20456;-55
2022/12/12 12:38:05;;;;;;;15.60;11.37;;;10.00;39.00;;;;;;5031763;28;20448;-55
2022/12/12 12:40:39;;;;;;;13.20;10.13;;;10.10;38.60;;;;;;5024906;28;20447;-55
2022/12/12 12:43:07;;;;;;;13.80;10.60;;;10.10;38.90;;;;;;5016349;28;20447;-53
2022/12/12 12:45:48;;;;;;;22.73;13.03;;;10.30;41.60;;;;;;5020415;28;20445;-53
2022/12/12 12:48:16;;;;;;;12.80;10.73;;;10.60;41.20;;;;;;5025706;28;20514;-54
2022/12/12 12:51:06;;;;;;;16.47;12.87;;;10.90;41.30;;;;;;5016337;28;20876;-52
2022/12/12 12:53:50;;;;;;;14.17;11.47;;;11.10;39.80;;;;;;5032248;28;20476;-56
2022/12/12 12:56:21;;;;;;;15.23;10.33;;;11.20;39.50;;;;;;5025200;28;20456;-53
2022/12/12 12:58:49;;;;;;;14.87;10.10;;;11.30;37.70;;;;;;5025361;28;20534;-54
2022/12/12 13:01:42;;;;;;;17.97;13.80;;;11.50;37.90;;;;;;5023655;28;20444;-56
2022/12/12 13:04:25;;;;;;;14.20;11.33;;;11.70;37.00;;;;;;5021793;28;20791;-53
2022/12/12 13:06:56;;;;;;;20.33;13.43;;;11.70;36.80;;;;;;5016783;28;20479;-56
2022/12/12 13:09:36;;;;;;;13.87;11.53;;;11.50;36.90;;;;;;5029179;28;20440;-53
2022/12/12 13:12:32;;;;;;;17.93;11.97;;;11.40;36.90;;;;;;5023710;28;20494;-55